F/V Face A La Mer — FGA3236 — position and weather

sailwx.info

Track history (hours):
 
Tides and Currents Weather Stations Pressure Air Temp Water Temp Dewpoint Dewpoint Depression Visibility Wind Speed Wind Dir Waves Ship Positions

F/V Face A La Mer

Last reported at 2017-Sep-19 20:58 UTC. Time now 2017-Sep-19 22:43 UTC.
Position N 47°56' W 004°47'.

Length 14 m.

Type: Fishing. MMSI: 227315190.

Date/timePositionNaut miles runAvg speedWind from/ knotsBaromVisibWave heightAir tempDewpointWater temp
2017-Sep-19 20:58N 47°56' W 004°47'4 1.8
2017-Sep-19 18:44N 47°60' W 004°45'312.9
2017-Sep-19 18:30N 48°03' W 004°46'5 9.8
2017-Sep-19 18:00N 48°05' W 004°39'5 9.6
2017-Sep-19 17:27N 48°06' W 004°32'4 9.4
2017-Sep-19 17:00N 48°07' W 004°25'4 0.3
2017-Sep-19 04:23N 48°06' W 004°19'0 0.0
2017-Sep-19 03:59N 48°06' W 004°19'1 2.4
2017-Sep-19 03:30N 48°07' W 004°21'5 9.0
2017-Sep-19 03:00N 48°09' W 004°27'2 5.0
2017-Sep-19 02:30N 48°09' W 004°30'0 0.5
2017-Sep-19 01:59N 48°09' W 004°30'1 1.3
2017-Sep-19 01:28N 48°09' W 004°30'0 0.3
2017-Sep-19 00:59N 48°09' W 004°31'1 0.8
2017-Sep-19 00:16N 48°08' W 004°31'3 8.7
2017-Sep-18 23:58N 48°09' W 004°35'4 9.5
2017-Sep-18 23:30N 48°10' W 004°41'4 8.4
2017-Sep-18 22:58N 48°10' W 004°48'1 1.4
2017-Sep-18 22:29N 48°11' W 004°49'0 0.8
2017-Sep-18 22:00N 48°11' W 004°48'3 4.9
2017-Sep-18 21:25N 48°12' W 004°52'3 6.9
2017-Sep-18 20:58N 48°14' W 004°55'4 7.7
2017-Sep-18 20:30N 48°15' W 004°50'3 6.2
2017-Sep-18 19:59N 48°12' W 004°47'4 8.2
2017-Sep-18 19:30N 48°10' W 004°42'5 9.4
2017-Sep-18 19:00N 48°09' W 004°35'5 9.6
2017-Sep-18 18:30N 48°08' W 004°28'5 9.3
2017-Sep-18 18:00N 48°07' W 004°22'2 2.0
2017-Sep-18 17:02N 48°06' W 004°19'0 6.6
2017-Sep-18 16:58N 48°06' W 004°20'1 0.4
2017-Sep-18 15:33N 48°06' W 004°19'0 0.1
2017-Sep-18 14:07N 48°06' W 004°19'0 0.6
2017-Sep-18 13:48N 48°06' W 004°19'0 0.0
2017-Sep-18 04:58N 48°06' W 004°19'0 0.2
2017-Sep-18 03:50N 48°06' W 004°20'0 0.0
2017-Sep-18 03:24N 48°06' W 004°20'0 0.0
2017-Sep-18 02:59N 48°06' W 004°20'3 7.0
2017-Sep-18 02:30N 48°08' W 004°23'4 8.9
2017-Sep-18 02:00N 48°10' W 004°29'3 6.1
2017-Sep-18 01:30N 48°08' W 004°33'1 1.4
2017-Sep-18 00:58N 48°08' W 004°32'4 8.6
2017-Sep-18 00:30N 48°09' W 004°26'4 7.9
2017-Sep-17 23:58N 48°08' W 004°32'4 8.9
2017-Sep-17 23:30N 48°09' W 004°39'4 7.7
2017-Sep-17 23:00N 48°11' W 004°44'1 2.4
2017-Sep-17 22:30N 48°10' W 004°45'0 0.4
2017-Sep-17 22:00N 48°10' W 004°45'1 2.7
2017-Sep-17 21:30N 48°12' W 004°45'3 5.7
2017-Sep-17 21:00N 48°13' W 004°49'2 3.8
2017-Sep-17 20:30N 48°11' W 004°48'1 1.2
2017-Sep-17 19:58N 48°12' W 004°47'0 0.4
2017-Sep-17 19:30N 48°12' W 004°47'1 1.7
2017-Sep-17 18:59N 48°12' W 004°46'4 8.1
2017-Sep-17 18:30N 48°10' W 004°41'5 9.4
2017-Sep-17 17:59N 48°09' W 004°34'5 9.4
2017-Sep-17 17:30N 48°08' W 004°27'5 9.3
2017-Sep-17 17:00N 48°07' W 004°20'  
2017-Sep-15 05:58N 48°06' W 004°19'0 0.0
2017-Sep-15 04:58N 48°06' W 004°19'0 0.0
2017-Sep-15 03:58N 48°06' W 004°19'5 4.7
2017-Sep-15 02:58N 48°09' W 004°25'4 4.0
2017-Sep-15 01:53N 48°09' W 004°31'0 0.5
2017-Sep-15 00:58N 48°09' W 004°31'8 7.0
2017-Sep-14 23:48N 48°11' W 004°43'1 4.9
2017-Sep-14 23:30N 48°12' W 004°45'1 1.2
2017-Sep-14 23:00N 48°12' W 004°46'1 1.2
2017-Sep-14 22:23N 48°12' W 004°44'1 1.8
2017-Sep-14 22:00N 48°12' W 004°43'1 2.0
2017-Sep-14 21:30N 48°12' W 004°45'3 5.3
2017-Sep-14 20:58N 48°14' W 004°48'4 8.7
2017-Sep-14 20:30N 48°12' W 004°43'4 8.8
2017-Sep-14 20:00N 48°10' W 004°37'2 1.9
2017-Sep-14 18:58N 48°08' W 004°38'8 7.7
2017-Sep-14 17:58N 48°08' W 004°27'5 4.8
2017-Sep-14 16:54N 48°06' W 004°20'  
Track history (hours):
 
Tides and Currents Weather Stations Pressure Air Temp Water Temp Dewpoint Dewpoint Depression Visibility Wind Speed Wind Dir Waves Ship Positions

F/V Face A La Mer

Last reported at 2017-Sep-19 20:58 UTC. Time now 2017-Sep-19 22:43 UTC.
Position N 47°56' W 004°47'.

Length 14 m.

Type: Fishing. MMSI: 227315190.

Date/timePositionNaut miles runAvg speedWind from/ knotsBaromVisibWave heightAir tempDewpointWater temp
2017-Sep-19 20:58N 47°56' W 004°47'4 1.8
2017-Sep-19 18:44N 47°60' W 004°45'312.9
2017-Sep-19 18:30N 48°03' W 004°46'5 9.8
2017-Sep-19 18:00N 48°05' W 004°39'5 9.6
2017-Sep-19 17:27N 48°06' W 004°32'4 9.4
2017-Sep-19 17:00N 48°07' W 004°25'4 0.3
2017-Sep-19 04:23N 48°06' W 004°19'0 0.0
2017-Sep-19 03:59N 48°06' W 004°19'1 2.4
2017-Sep-19 03:30N 48°07' W 004°21'5 9.0
2017-Sep-19 03:00N 48°09' W 004°27'2 5.0
2017-Sep-19 02:30N 48°09' W 004°30'0 0.5
2017-Sep-19 01:59N 48°09' W 004°30'1 1.3
2017-Sep-19 01:28N 48°09' W 004°30'0 0.3
2017-Sep-19 00:59N 48°09' W 004°31'1 0.8
2017-Sep-19 00:16N 48°08' W 004°31'3 8.7
2017-Sep-18 23:58N 48°09' W 004°35'4 9.5
2017-Sep-18 23:30N 48°10' W 004°41'4 8.4
2017-Sep-18 22:58N 48°10' W 004°48'1 1.4
2017-Sep-18 22:29N 48°11' W 004°49'0 0.8
2017-Sep-18 22:00N 48°11' W 004°48'3 4.9
2017-Sep-18 21:25N 48°12' W 004°52'3 6.9
2017-Sep-18 20:58N 48°14' W 004°55'4 7.7
2017-Sep-18 20:30N 48°15' W 004°50'3 6.2
2017-Sep-18 19:59N 48°12' W 004°47'4 8.2
2017-Sep-18 19:30N 48°10' W 004°42'5 9.4
2017-Sep-18 19:00N 48°09' W 004°35'5 9.6
2017-Sep-18 18:30N 48°08' W 004°28'5 9.3
2017-Sep-18 18:00N 48°07' W 004°22'2 2.0
2017-Sep-18 17:02N 48°06' W 004°19'0 6.6
2017-Sep-18 16:58N 48°06' W 004°20'1 0.4
2017-Sep-18 15:33N 48°06' W 004°19'0 0.1
2017-Sep-18 14:07N 48°06' W 004°19'0 0.6
2017-Sep-18 13:48N 48°06' W 004°19'0 0.0
2017-Sep-18 04:58N 48°06' W 004°19'0 0.2
2017-Sep-18 03:50N 48°06' W 004°20'0 0.0
2017-Sep-18 03:24N 48°06' W 004°20'0 0.0
2017-Sep-18 02:59N 48°06' W 004°20'3 7.0
2017-Sep-18 02:30N 48°08' W 004°23'4 8.9
2017-Sep-18 02:00N 48°10' W 004°29'3 6.1
2017-Sep-18 01:30N 48°08' W 004°33'1 1.4
2017-Sep-18 00:58N 48°08' W 004°32'4 8.6
2017-Sep-18 00:30N 48°09' W 004°26'4 7.9
2017-Sep-17 23:58N 48°08' W 004°32'4 8.9
2017-Sep-17 23:30N 48°09' W 004°39'4 7.7
2017-Sep-17 23:00N 48°11' W 004°44'1 2.4
2017-Sep-17 22:30N 48°10' W 004°45'0 0.4
2017-Sep-17 22:00N 48°10' W 004°45'1 2.7
2017-Sep-17 21:30N 48°12' W 004°45'3 5.7
2017-Sep-17 21:00N 48°13' W 004°49'2 3.8
2017-Sep-17 20:30N 48°11' W 004°48'1 1.2
2017-Sep-17 19:58N 48°12' W 004°47'0 0.4
2017-Sep-17 19:30N 48°12' W 004°47'1 1.7
2017-Sep-17 18:59N 48°12' W 004°46'4 8.1
2017-Sep-17 18:30N 48°10' W 004°41'5 9.4
2017-Sep-17 17:59N 48°09' W 004°34'5 9.4
2017-Sep-17 17:30N 48°08' W 004°27'5 9.3
2017-Sep-17 17:00N 48°07' W 004°20'  
2017-Sep-15 05:58N 48°06' W 004°19'0 0.0
2017-Sep-15 04:58N 48°06' W 004°19'0 0.0
2017-Sep-15 03:58N 48°06' W 004°19'5 4.7
2017-Sep-15 02:58N 48°09' W 004°25'4 4.0
2017-Sep-15 01:53N 48°09' W 004°31'0 0.5
2017-Sep-15 00:58N 48°09' W 004°31'8 7.0
2017-Sep-14 23:48N 48°11' W 004°43'1 4.9
2017-Sep-14 23:30N 48°12' W 004°45'1 1.2
2017-Sep-14 23:00N 48°12' W 004°46'1 1.2
2017-Sep-14 22:23N 48°12' W 004°44'1 1.8
2017-Sep-14 22:00N 48°12' W 004°43'1 2.0
2017-Sep-14 21:30N 48°12' W 004°45'3 5.3
2017-Sep-14 20:58N 48°14' W 004°48'4 8.7
2017-Sep-14 20:30N 48°12' W 004°43'4 8.8
2017-Sep-14 20:00N 48°10' W 004°37'2 1.9
2017-Sep-14 18:58N 48°08' W 004°38'8 7.7
2017-Sep-14 17:58N 48°08' W 004°27'5 4.8
2017-Sep-14 16:54N 48°06' W 004°20'  

Dump ship's entire track history